Huvudsida
METAR-TAF:

METAR-TAF

Flygplatser :

Splits flygplats

Split, Kroatien

latitud: 43-32N, longitud: 016-18E, höjd: 19 m

Aktuellt väderrapport

Denna rapport gjordes för 37 minuter sedan, klockan 21:00 UTC
Vind 9 kt från nordväst, varierande mellan väst/nordväst och nord
Temperatur 16°C
Fuktighet 23%
Tryck 1022 hPa
Sikt 10 km eller mer
Inga moln under 1 500 m eller inga cumulonimbus

METAR: LDSP 082100Z AUTO 32009KT 290V350 CAVOK 16/M05 Q1022

Tid: 23:37 (21:37 UTC)

Väderprognos

Denna rapport gjordes för 4 timmar och 12 minuter sedan, klockan 17:25 UTC
Prognos gäller från 08 kl. 18 UTC till 09 kl. 18 UTC
Vind 6 kt från nordväst
Sikt 10 km eller mer
Inga moln under 1 500 m eller inga cumulonimbus
Blir
från 09 kl. 09 UTC till 09 kl. 11 UTC
Vind 12 kt från sydväst
Blir
från 09 kl. 14 UTC till 09 kl. 16 UTC
Vind 8 kt från nord/nordväst

TAF: LDSP 081725Z 0818/0918 32006KT CAVOK TX22/0914Z TN10/0905Z BECMG 0909/0911 23012KT BECMG 0914/0916 34008KT

Aktuella väderrapporter och prognoser från 4000 flygplatser (METAR- och TAF-rapporter).

De tillgängliga stationerna syns som gula och röda prickar på kartan.

För musen över prickarna för att se namnen på stationerna.

Klicka sedan för att få väderrapporter och prognoser.

För att ändra kartan: Klicka på de gröna knapparna med ett svart kors på för att zooma in; den gröna knappen med ett streck på för att zooma ut; eller på de gröna pilarna för angränsande kartor.


METAR-TAF: